Time;durP1;ratioP1;P1;durP2;ratioP2;P2;SDS_P1;SDS_P2;PMS_P1;PMS_P2;Temp;Humidity;BMP_temperature;BMP_pressure;BME280_temperature;BME280_humidity;BME280_pressure;Samples;Min_cycle;Max_cycle;Signal;HPM_P1;HPM_P2
2021/12/24 00:01:27;;;;;;;47.60;18.70;;;;;;;0.44;83.88;98785.98;103317;1315;25461;-63
2021/12/24 00:03:58;;;;;;;46.70;19.40;;;;;;;0.44;83.93;98783.38;103284;1313;24242;-63
2021/12/24 00:06:29;;;;;;;44.90;19.10;;;;;;;0.45;83.95;98789.06;103330;1316;24115;-63
2021/12/24 00:09:01;;;;;;;44.50;18.80;;;;;;;0.46;84.04;98785.10;103167;1318;25583;-64
2021/12/24 00:11:33;;;;;;;44.10;20.60;;;;;;;0.47;84.11;98780.77;103313;1315;22655;-63
2021/12/24 00:14:05;;;;;;;44.80;20.10;;;;;;;0.48;84.06;98776.50;103268;1315;22615;-63
2021/12/24 00:16:40;;;;;;;46.20;18.40;;;;;;;0.49;84.14;98767.82;103448;1313;22675;-64
2021/12/24 00:19:20;;;;;;;48.10;18.90;;;;;;;0.49;84.25;98769.71;103214;1312;22754;-64
2021/12/24 00:35:51;;;;;;;46.60;19.90;;;;;;;0.47;84.68;98749.14;103338;1315;22534;-63
2021/12/24 00:38:23;;;;;;;48.80;21.60;;;;;;;0.47;84.71;98749.86;103293;1315;22538;-65
2021/12/24 00:40:55;;;;;;;44.00;18.80;;;;;;;0.48;84.74;98753.51;103342;1320;23033;-63
2021/12/24 00:43:27;;;;;;;45.80;21.40;;;;;;;0.48;84.77;98747.85;103358;1315;25040;-63
2021/12/24 00:45:57;;;;;;;42.30;19.00;;;;;;;0.49;84.79;98740.21;103302;1313;24326;-63
2021/12/24 00:48:29;;;;;;;46.10;19.90;;;;;;;0.50;84.88;98740.42;103326;1315;23981;-64
2021/12/24 00:51:19;;;;;;;49.60;19.50;;;;;;;0.50;84.90;98742.13;103347;1314;22567;-63
2021/12/24 00:56:38;;;;;;;44.10;18.80;;;;;;;0.52;84.96;98727.70;103214;1313;25947;-63
2021/12/24 00:59:09;;;;;;;42.90;18.20;;;;;;;0.53;85.04;98723.67;103268;1317;22825;-63
2021/12/24 01:01:40;;;;;;;47.90;20.50;;;;;;;0.54;85.10;98720.25;103345;1313;25880;-63
2021/12/24 01:04:11;;;;;;;49.80;20.90;;;;;;;0.55;85.20;98714.27;103304;1313;24254;-63
2021/12/24 01:06:42;;;;;;;55.30;22.80;;;;;;;0.57;85.14;98716.04;103290;1315;22887;-63
2021/12/24 01:09:17;;;;;;;46.70;21.30;;;;;;;0.59;85.25;98719.20;103178;1312;25868;-64
2021/12/24 01:11:47;;;;;;;42.50;18.20;;;;;;;0.60;85.08;98714.48;103318;1313;24368;-63
2021/12/24 01:14:20;;;;;;;47.60;20.10;;;;;;;0.61;85.21;98714.36;103207;1314;25883;-64
2021/12/24 01:17:02;;;;;;;43.40;19.40;;;;;;;0.63;85.20;98712.63;103465;1314;22604;-63
2021/12/24 01:19:37;;;;;;;45.80;19.40;;;;;;;0.66;85.16;98702.63;103304;1317;22583;-64
2021/12/24 01:25:01;;;;;;;45.70;19.50;;;;;;;0.65;85.19;98694.58;103624;1313;22841;-64
2021/12/24 01:27:53;;;;;;;44.80;19.10;;;;;;;0.67;85.28;98702.98;103532;1313;22580;-63
2021/12/24 01:38:59;;;;;;;48.20;19.40;;;;;;;0.75;85.28;98686.52;103387;1315;25582;-63
2021/12/24 01:44:26;;;;;;;51.50;21.50;;;;;;;0.76;85.37;98678.63;102916;1318;26653;-65
2021/12/24 01:47:01;;;;;;;46.30;19.20;;;;;;;0.80;85.45;98680.69;102893;1326;22573;-62
2021/12/24 01:49:32;;;;;;;48.20;19.80;;;;;;;0.80;85.43;98670.05;103034;1318;24216;-62
2021/12/24 01:52:04;;;;;;;52.90;24.10;;;;;;;0.80;85.37;98662.85;103056;1321;22693;-62
2021/12/24 01:54:35;;;;;;;54.70;25.80;;;;;;;0.80;85.46;98656.66;104556;1325;22575;-62
2021/12/24 01:57:08;;;;;;;54.70;23.90;;;;;;;0.78;85.45;98651.95;102910;1318;22603;-64
2021/12/24 01:59:39;;;;;;;53.90;22.70;;;;;;;0.79;85.48;98652.30;103000;1321;25420;-64
2021/12/24 02:02:10;;;;;;;56.20;24.80;;;;;;;0.77;85.52;98639.02;102792;1325;22633;-62
2021/12/24 02:04:41;;;;;;;45.20;21.30;;;;;;;0.78;85.61;98639.41;103085;1325;24391;-63
2021/12/24 02:07:12;;;;;;;39.00;17.80;;;;;;;0.79;85.60;98637.95;103021;1318;22674;-63
2021/12/24 02:09:43;;;;;;;43.40;18.70;;;;;;;0.78;85.69;98639.92;102964;1322;22641;-63
2021/12/24 02:12:15;;;;;;;44.20;18.80;;;;;;;0.80;85.75;98637.83;103157;1318;22694;-63
2021/12/24 02:14:51;;;;;;;40.10;16.80;;;;;;;0.81;85.78;98635.41;102954;1318;22593;-64
2021/12/24 02:17:49;;;;;;;34.90;15.30;;;;;;;0.81;85.77;98631.48;103017;1324;24252;-64
2021/12/24 02:28:50;;;;;;;40.30;14.90;;;;;;;0.83;86.02;98629.23;104907;1315;22576;-63
2021/12/24 02:31:23;;;;;;;35.70;14.30;;;;;;;0.84;86.03;98627.92;103315;1312;22594;-63
2021/12/24 02:33:55;;;;;;;32.30;13.30;;;;;;;0.86;86.00;98624.11;103347;1315;24131;-64
2021/12/24 02:36:28;;;;;;;32.20;13.10;;;;;;;0.86;86.11;98620.88;103344;1315;22580;-63
2021/12/24 02:38:59;;;;;;;31.60;13.00;;;;;;;0.86;86.20;98619.38;103619;1317;24259;-62
2021/12/24 02:41:29;;;;;;;35.20;14.30;;;;;;;0.87;86.20;98616.52;103373;1313;24352;-62
2021/12/24 02:44:00;;;;;;;34.20;12.40;;;;;;;0.87;86.19;98611.71;103399;1317;25515;-62
2021/12/24 02:46:39;;;;;;;27.40;10.70;;;;;;;0.90;86.30;98613.59;103229;1316;22675;-62
2021/12/24 02:49:14;;;;;;;31.40;11.50;;;;;;;0.90;86.31;98611.21;103220;1313;22583;-63
2021/12/24 02:54:33;;;;;;;29.60;11.40;;;;;;;0.91;86.41;98607.89;103191;1315;22583;-63
2021/12/24 02:57:10;;;;;;;29.00;11.60;;;;;;;0.91;86.47;98606.45;103198;1313;22567;-63
2021/12/24 02:59:57;;;;;;;26.50;11.60;;;;;;;0.91;86.54;98606.95;103261;1313;22558;-63
2021/12/24 03:02:30;;;;;;;29.20;10.50;;;;;;;0.91;86.77;98603.23;103460;1304;22644;-65
2021/12/24 03:05:02;;;;;;;27.80;10.50;;;;;;;0.91;86.75;98607.19;103193;1316;25601;-66
2021/12/24 03:07:34;;;;;;;26.10;10.20;;;;;;;0.92;86.77;98602.58;103112;1318;23150;-66
2021/12/24 03:10:12;;;;;;;27.40;10.40;;;;;;;0.93;86.79;98598.06;102959;1312;22587;-65
2021/12/24 03:12:44;;;;;;;28.20;10.00;;;;;;;0.94;86.86;98596.84;102926;1313;22571;-65
2021/12/24 03:15:17;;;;;;;24.30;9.70;;;;;;;0.95;86.87;98589.59;102913;1318;22649;-65
2021/12/24 03:17:52;;;;;;;22.20;8.40;;;;;;;0.96;86.88;98591.96;102961;1312;25508;-65
2021/12/24 03:20:23;;;;;;;24.00;7.80;;;;;;;0.96;86.93;98589.06;102975;1313;22590;-65
2021/12/24 03:23:06;;;;;;;21.50;8.20;;;;;;;0.96;87.06;98588.27;103130;1319;24325;-65
2021/12/24 03:25:39;;;;;;;24.40;9.20;;;;;;;0.97;87.03;98580.95;102775;1313;22688;-65
2021/12/24 03:28:10;;;;;;;23.60;8.80;;;;;;;0.97;87.13;98586.30;102751;1312;26481;-65
2021/12/24 03:30:41;;;;;;;21.00;8.20;;;;;;;0.97;87.11;98585.50;102916;1313;24738;-66
2021/12/24 03:33:12;;;;;;;20.50;8.00;;;;;;;0.97;87.08;98576.45;102854;1312;22730;-66
2021/12/24 03:35:44;;;;;;;21.80;7.80;;;;;;;0.98;87.18;98570.23;102844;1317;22558;-67
2021/12/24 03:38:15;;;;;;;19.50;7.20;;;;;;;0.99;87.24;98567.36;102910;1313;22568;-67
2021/12/24 03:40:46;;;;;;;19.90;7.20;;;;;;;1.00;87.26;98563.95;102955;1319;22674;-67
2021/12/24 03:43:19;;;;;;;26.30;8.80;;;;;;;1.01;87.31;98558.98;102889;1318;22911;-68
2021/12/24 03:45:59;;;;;;;22.40;7.40;;;;;;;1.01;87.49;98563.19;102793;1312;26822;-67
2021/12/24 03:48:43;;;;;;;19.90;7.90;;;;;;;1.01;87.48;98561.00;102837;1317;23239;-67
2021/12/24 03:51:34;;;;;;;19.50;7.80;;;;;;;1.01;87.55;98564.14;102699;1313;24218;-72
2021/12/24 03:56:56;;;;;;;23.50;8.10;;;;;;;1.02;87.59;98561.97;102778;1313;23085;-67
2021/12/24 03:59:27;;;;;;;24.20;8.40;;;;;;;1.03;87.71;98559.89;102919;1317;22752;-67
2021/12/24 04:01:58;;;;;;;23.50;8.20;;;;;;;1.04;87.72;98563.08;102985;1313;25799;-67
2021/12/24 04:04:28;;;;;;;24.60;8.60;;;;;;;1.04;87.72;98570.06;102791;1313;22587;-67
2021/12/24 04:06:59;;;;;;;21.00;8.30;;;;;;;1.04;87.76;98565.18;102752;1313;22578;-67
2021/12/24 04:09:31;;;;;;;18.30;7.20;;;;;;;1.06;87.76;98558.67;102839;1313;22630;-67
2021/12/24 04:12:03;;;;;;;21.40;7.70;;;;;;;1.09;87.78;98559.98;102840;1312;26797;-67
2021/12/24 04:14:34;;;;;;;23.80;8.90;;;;;;;1.10;87.78;98561.70;102842;1318;22567;-67
2021/12/24 04:17:07;;;;;;;22.10;8.90;;;;;;;1.10;87.86;98552.99;102795;1312;24955;-67
2021/12/24 04:25:12;;;;;;;23.80;8.70;;;;;;;1.14;88.11;98559.83;102873;1319;25519;-68
2021/12/24 04:27:43;;;;;;;25.40;9.30;;;;;;;1.14;88.16;98562.66;102771;1312;22604;-67
2021/12/24 04:30:19;;;;;;;26.40;9.90;;;;;;;1.14;88.19;98557.77;102825;1315;24313;-67
2021/12/24 04:32:58;;;;;;;22.10;8.30;;;;;;;1.15;88.12;98556.10;102738;1312;22577;-67
2021/12/24 04:35:40;;;;;;;24.00;10.10;;;;;;;1.16;88.20;98553.33;102989;1313;24428;-67
2021/12/24 04:52:16;;;;;;;25.70;9.20;;;;;;;1.24;88.27;98538.77;102903;1312;24358;-67
2021/12/24 05:03:13;;;;;;;23.20;9.10;;;;;;;1.25;88.41;98550.00;102800;1315;24870;-66
2021/12/24 05:05:48;;;;;;;23.70;8.90;;;;;;;1.27;88.49;98559.50;102978;1315;22577;-67
2021/12/24 05:08:23;;;;;;;23.40;9.10;;;;;;;1.28;88.39;98556.88;102839;1313;22695;-67
2021/12/24 05:10:57;;;;;;;20.80;7.80;;;;;;;1.29;88.39;98559.81;102821;1317;22588;-66
2021/12/24 05:13:28;;;;;;;25.00;8.50;;;;;;;1.31;88.44;98563.51;102922;1312;25379;-67
2021/12/24 05:16:06;;;;;;;24.00;8.00;;;;;;;1.32;88.43;98564.02;102809;1312;24246;-67
2021/12/24 05:19:02;;;;;;;24.50;8.10;;;;;;;1.34;88.44;98565.19;102902;1319;22567;-68
2021/12/24 05:21:36;;;;;;;24.00;9.50;;;;;;;1.36;88.44;98562.66;102810;1313;22595;-66
2021/12/24 05:24:08;;;;;;;26.90;8.50;;;;;;;1.38;88.52;98560.95;102773;1312;26135;-66
2021/12/24 05:26:41;;;;;;;28.20;9.10;;;;;;;1.38;88.52;98557.80;102924;1312;22577;-67
2021/12/24 05:29:13;;;;;;;26.20;9.60;;;;;;;1.38;88.77;98553.71;102663;1313;24206;-67
2021/12/24 05:31:44;;;;;;;29.40;11.10;;;;;;;1.39;88.92;98542.73;102876;1312;22778;-67
2021/12/24 05:34:18;;;;;;;29.40;10.80;;;;;;;1.40;88.92;98540.63;102935;1312;22626;-67
2021/12/24 05:36:50;;;;;;;29.10;10.00;;;;;;;1.42;89.06;98540.34;102976;1316;22645;-67
2021/12/24 05:39:23;;;;;;;25.20;9.20;;;;;;;1.42;89.04;98536.78;102903;1314;22673;-68
2021/12/24 05:41:55;;;;;;;26.90;9.20;;;;;;;1.44;89.03;98534.41;102750;1318;24374;-68
2021/12/24 05:44:26;;;;;;;28.30;8.00;;;;;;;1.43;89.10;98531.06;102836;1315;22641;-68
2021/12/24 05:46:56;;;;;;;22.90;8.20;;;;;;;1.43;89.22;98541.70;102838;1313;24025;-68
2021/12/24 05:49:27;;;;;;;24.30;8.70;;;;;;;1.44;89.26;98543.47;102738;1313;22616;-70
2021/12/24 05:51:59;;;;;;;23.50;7.60;;;;;;;1.46;89.27;98540.48;102898;1316;24414;-67
2021/12/24 05:54:29;;;;;;;26.40;9.20;;;;;;;1.46;89.39;98533.54;103209;1318;24313;-68
2021/12/24 05:57:00;;;;;;;25.70;9.50;;;;;;;1.48;89.47;98529.93;102618;1317;24407;-68
2021/12/24 05:59:31;;;;;;;25.60;9.00;;;;;;;1.50;89.45;98533.00;102725;1316;23932;-67
2021/12/24 06:02:02;;;;;;;24.10;9.60;;;;;;;1.51;89.52;98528.72;102729;1312;22627;-67
2021/12/24 06:04:33;;;;;;;25.60;9.40;;;;;;;1.51;89.43;98516.27;102926;1312;22588;-67
2021/12/24 06:07:05;;;;;;;23.40;8.60;;;;;;;1.53;89.52;98515.98;102764;1319;22669;-67
2021/12/24 06:09:37;;;;;;;23.10;8.80;;;;;;;1.54;89.44;98512.22;102906;1319;22596;-67
2021/12/24 06:12:09;;;;;;;22.30;9.00;;;;;;;1.55;89.57;98512.98;102850;1313;24401;-67
2021/12/24 06:14:42;;;;;;;25.00;9.20;;;;;;;1.55;89.56;98513.64;103093;1313;24313;-67
2021/12/24 06:17:24;;;;;;;23.80;9.30;;;;;;;1.56;89.62;98511.66;102900;1312;22590;-66
2021/12/24 06:19:55;;;;;;;24.60;9.70;;;;;;;1.57;89.60;98508.48;102868;1313;22640;-66
2021/12/24 06:22:27;;;;;;;24.10;9.50;;;;;;;1.56;89.68;98507.48;102755;1312;24279;-66
2021/12/24 06:24:58;;;;;;;26.00;9.60;;;;;;;1.57;89.82;98510.14;102939;1317;22577;-66
2021/12/24 06:27:30;;;;;;;22.60;8.30;;;;;;;1.57;89.78;98511.54;102985;1317;24801;-66
2021/12/24 06:30:01;;;;;;;26.10;9.00;;;;;;;1.58;89.88;98512.15;103076;1315;24248;-66
2021/12/24 06:32:32;;;;;;;22.50;8.70;;;;;;;1.59;89.95;98511.54;102920;1316;22606;-66
2021/12/24 06:35:03;;;;;;;22.10;8.60;;;;;;;1.60;89.98;98514.15;102832;1313;24225;-66
2021/12/24 06:37:35;;;;;;;20.10;7.60;;;;;;;1.61;89.98;98516.23;102896;1312;25320;-66
2021/12/24 06:40:08;;;;;;;22.70;8.30;;;;;;;1.62;90.06;98522.32;102813;1316;24282;-66
2021/12/24 06:42:39;;;;;;;24.40;8.50;;;;;;;1.62;90.13;98527.83;103039;1315;22602;-66
2021/12/24 06:45:12;;;;;;;20.10;7.80;;;;;;;1.63;90.29;98526.05;102770;1315;23103;-66
2021/12/24 06:47:43;;;;;;;23.50;9.50;;;;;;;1.64;90.33;98522.31;102917;1317;22555;-66
2021/12/24 06:50:15;;;;;;;26.40;9.40;;;;;;;1.65;90.31;98520.30;102787;1312;22563;-66
2021/12/24 06:52:46;;;;;;;24.40;8.70;;;;;;;1.67;90.38;98516.69;102691;1312;22650;-66
2021/12/24 06:55:18;;;;;;;28.50;10.00;;;;;;;1.68;90.38;98516.27;102761;1316;22693;-66
2021/12/24 06:57:49;;;;;;;26.00;10.40;;;;;;;1.70;90.39;98520.11;102803;1315;25402;-65
2021/12/24 07:00:22;;;;;;;28.50;9.70;;;;;;;1.71;90.38;98523.04;102751;1315;22570;-66
2021/12/24 07:02:54;;;;;;;33.90;11.30;;;;;;;1.72;90.42;98524.23;103004;1313;25463;-66
2021/12/24 07:05:26;;;;;;;38.30;14.30;;;;;;;1.74;90.30;98524.23;102798;1312;22626;-66
2021/12/24 07:07:56;;;;;;;44.00;17.40;;;;;;;1.74;90.55;98520.98;102798;1315;23956;-66
2021/12/24 07:10:27;;;;;;;56.50;20.00;;;;;;;1.77;90.62;98527.25;102829;1312;22576;-68
2021/12/24 07:12:58;;;;;;;63.00;22.50;;;;;;;1.78;90.69;98522.67;102896;1313;22577;-67
2021/12/24 07:15:29;;;;;;;62.10;21.30;;;;;;;1.80;90.56;98528.04;102774;1313;23124;-65
2021/12/24 07:18:00;;;;;;;58.60;21.70;;;;;;;1.82;90.71;98531.34;102786;1312;24306;-66
2021/12/24 07:20:31;;;;;;;61.50;22.40;;;;;;;1.85;90.77;98529.32;102771;1312;23151;-66
2021/12/24 07:23:02;;;;;;;61.10;20.80;;;;;;;1.87;90.71;98525.92;102866;1312;22580;-65
2021/12/24 07:25:33;;;;;;;64.00;22.80;;;;;;;1.89;90.83;98525.13;102711;1315;25357;-66
2021/12/24 07:28:05;;;;;;;54.50;19.30;;;;;;;1.92;90.86;98520.50;103034;1312;22566;-66
2021/12/24 07:30:36;;;;;;;46.60;15.50;;;;;;;1.95;90.86;98522.35;102809;1312;22642;-65
2021/12/24 07:33:14;;;;;;;46.40;14.30;;;;;;;1.97;90.96;98523.33;102865;1313;23128;-66
2021/12/24 07:35:46;;;;;;;34.40;12.20;;;;;;;1.99;90.87;98515.86;102957;1317;22560;-67
2021/12/24 07:38:17;;;;;;;31.10;11.20;;;;;;;2.01;90.77;98509.64;102814;1313;25415;-66
2021/12/24 07:40:49;;;;;;;25.30;8.90;;;;;;;2.02;90.88;98508.08;102764;1312;22616;-65
2021/12/24 07:43:20;;;;;;;23.30;8.90;;;;;;;2.05;91.06;98503.50;102628;1312;25586;-65
2021/12/24 07:45:54;;;;;;;19.90;6.90;;;;;;;2.07;91.00;98498.04;102788;1313;22599;-64
2021/12/24 07:48:28;;;;;;;27.50;10.80;;;;;;;2.09;90.88;98504.91;102920;1315;25387;-67
2021/12/24 07:53:50;;;;;;;29.50;10.40;;;;;;;2.14;90.92;98506.27;102850;1313;25326;-69
2021/12/24 07:56:21;;;;;;;26.60;10.20;;;;;;;2.15;91.00;98509.61;102879;1312;22568;-69
2021/12/24 07:58:52;;;;;;;22.30;8.00;;;;;;;2.16;91.04;98504.98;102811;1313;25367;-68
2021/12/24 08:01:27;;;;;;;24.70;8.00;;;;;;;2.18;91.15;98507.66;102837;1317;22577;-66
2021/12/24 08:03:59;;;;;;;22.80;7.60;;;;;;;2.19;91.13;98506.59;102827;1317;22694;-66
2021/12/24 08:06:30;;;;;;;21.70;6.80;;;;;;;2.20;91.14;98503.92;102765;1312;24070;-66
2021/12/24 08:09:01;;;;;;;23.30;8.60;;;;;;;2.21;91.07;98499.95;102734;1312;24321;-67
2021/12/24 08:11:32;;;;;;;22.70;8.10;;;;;;;2.21;90.95;98498.05;102812;1319;22575;-67
2021/12/24 08:14:05;;;;;;;24.20;7.70;;;;;;;2.23;91.05;98493.19;102936;1316;22558;-66
2021/12/24 08:16:37;;;;;;;20.30;6.80;;;;;;;2.24;91.03;98486.99;102793;1317;22574;-67
2021/12/24 08:19:08;;;;;;;25.60;9.40;;;;;;;2.26;91.15;98484.14;103412;1317;22579;-67
2021/12/24 08:21:39;;;;;;;23.20;8.50;;;;;;;2.28;91.17;98475.88;102857;1318;22661;-67
2021/12/24 08:24:11;;;;;;;23.00;10.00;;;;;;;2.29;91.19;98475.05;105470;1312;25346;-67
2021/12/24 08:26:48;;;;;;;24.70;9.30;;;;;;;2.30;91.30;98473.27;104767;1316;22733;-66
2021/12/24 08:29:21;;;;;;;28.20;10.10;;;;;;;2.32;91.37;98470.71;102901;1312;23088;-66
2021/12/24 08:31:53;;;;;;;27.00;10.30;;;;;;;2.34;91.41;98469.06;102866;1312;27445;-66
2021/12/24 08:34:25;;;;;;;25.50;9.00;;;;;;;2.36;91.27;98470.81;103431;1316;24844;-66
2021/12/24 08:36:56;;;;;;;21.30;7.80;;;;;;;2.38;91.24;98465.05;102939;1319;23140;-66
2021/12/24 08:39:28;;;;;;;19.10;7.50;;;;;;;2.40;91.28;98464.49;102768;1317;25773;-67
2021/12/24 08:41:59;;;;;;;23.50;9.00;;;;;;;2.42;91.35;98460.18;102865;1312;25630;-66
2021/12/24 08:44:32;;;;;;;21.30;7.70;;;;;;;2.44;91.49;98460.63;102774;1314;25551;-65
2021/12/24 08:47:05;;;;;;;22.20;8.50;;;;;;;2.46;91.58;98463.48;103091;1319;22570;-66
2021/12/24 08:49:38;;;;;;;24.20;8.50;;;;;;;2.48;91.62;98462.71;102851;1313;25999;-66
2021/12/24 08:52:10;;;;;;;23.40;8.30;;;;;;;2.48;91.56;98460.41;102785;1315;25452;-66
2021/12/24 08:54:42;;;;;;;22.20;7.90;;;;;;;2.49;91.51;98463.60;102794;1311;22644;-66
2021/12/24 08:57:14;;;;;;;22.30;8.40;;;;;;;2.50;91.56;98463.80;102895;1312;22670;-71
2021/12/24 08:59:46;;;;;;;25.00;8.50;;;;;;;2.52;91.49;98458.14;102940;1315;22655;-65
2021/12/24 09:02:17;;;;;;;24.50;8.90;;;;;;;2.52;91.43;98454.02;103027;1313;22564;-66
2021/12/24 09:04:49;;;;;;;23.90;8.60;;;;;;;2.53;91.50;98456.56;103023;1313;27065;-66
2021/12/24 09:07:22;;;;;;;22.50;6.90;;;;;;;2.55;91.46;98457.73;104828;1312;22551;-69
2021/12/24 09:09:54;;;;;;;19.50;6.20;;;;;;;2.56;91.43;98456.52;103572;1317;25323;-65
2021/12/24 09:12:27;;;;;;;20.00;7.30;;;;;;;2.55;91.43;98449.30;103036;1318;22594;-66
2021/12/24 09:15:03;;;;;;;17.50;5.40;;;;;;;2.55;91.33;98449.84;103260;1316;25077;-66
2021/12/24 09:17:37;;;;;;;18.10;6.10;;;;;;;2.55;91.30;98451.34;103010;1312;22785;-64
2021/12/24 09:20:11;;;;;;;19.70;6.20;;;;;;;2.57;91.30;98447.88;102930;1312;26142;-67
2021/12/24 09:22:43;;;;;;;21.20;6.60;;;;;;;2.59;91.28;98448.67;103074;1312;22555;-67
2021/12/24 09:25:14;;;;;;;20.10;6.60;;;;;;;2.60;91.25;98451.99;102829;1312;25354;-67
2021/12/24 09:27:45;;;;;;;20.50;6.50;;;;;;;2.61;91.28;98451.63;102866;1317;22716;-66
2021/12/24 09:30:21;;;;;;;19.30;5.80;;;;;;;2.63;91.18;98452.55;103301;1317;24432;-66
2021/12/24 09:32:59;;;;;;;21.30;6.70;;;;;;;2.64;91.17;98450.90;103876;1312;22584;-66
2021/12/24 09:35:30;;;;;;;21.20;7.20;;;;;;;2.67;91.22;98445.19;103044;1316;22611;-67
2021/12/24 09:38:02;;;;;;;21.70;6.90;;;;;;;2.69;91.26;98447.39;102983;1312;25316;-66
2021/12/24 09:40:35;;;;;;;21.20;6.30;;;;;;;2.69;91.29;98445.09;103086;1313;22577;-66
2021/12/24 09:43:06;;;;;;;20.90;6.40;;;;;;;2.71;91.26;98439.41;103078;1312;22725;-67
2021/12/24 09:49:23;;;;;;;21.50;6.50;;;;;;;2.72;91.24;98428.46;103106;1312;24217;-66
2021/12/24 09:51:55;;;;;;;21.80;7.50;;;;;;;2.73;91.28;98429.23;103263;1318;24675;-65
2021/12/24 09:54:27;;;;;;;24.10;8.20;;;;;;;2.75;91.36;98423.35;103220;1312;22547;-65
2021/12/24 09:57:01;;;;;;;25.50;8.70;;;;;;;2.76;91.44;98417.80;104222;1312;22594;-68
2021/12/24 09:59:42;;;;;;;25.50;8.20;;;;;;;2.76;91.41;98416.87;103808;1312;22607;-65
2021/12/24 10:02:19;;;;;;;24.50;8.20;;;;;;;2.77;91.50;98409.24;103330;1312;22948;-64
2021/12/24 10:04:54;;;;;;;26.90;8.00;;;;;;;2.78;91.58;98410.70;103736;1313;23015;-64
2021/12/24 10:07:26;;;;;;;25.20;7.90;;;;;;;2.79;91.57;98409.47;102986;1312;25255;-64
2021/12/24 10:10:07;;;;;;;28.30;9.30;;;;;;;2.79;91.52;98406.54;102921;1312;24438;-64
2021/12/24 10:12:38;;;;;;;26.80;8.40;;;;;;;2.79;91.64;98403.22;103581;1316;25361;-63
2021/12/24 10:15:11;;;;;;;29.30;8.90;;;;;;;2.80;91.74;98402.08;103013;1312;22595;-64
2021/12/24 10:17:43;;;;;;;27.80;9.70;;;;;;;2.83;91.89;98402.17;102995;1312;25664;-64
2021/12/24 10:20:16;;;;;;;26.00;9.50;;;;;;;2.84;91.83;98401.65;103131;1312;23169;-67
2021/12/24 10:22:50;;;;;;;25.80;9.20;;;;;;;2.85;91.98;98397.87;104046;1312;25596;-65
2021/12/24 10:25:28;;;;;;;22.90;7.90;;;;;;;2.86;91.96;98393.89;102783;1312;24447;-69
2021/12/24 10:28:09;;;;;;;25.50;9.60;;;;;;;2.88;92.01;98392.16;103686;1319;22593;-68
2021/12/24 10:30:40;;;;;;;25.10;9.50;;;;;;;2.90;92.23;98393.30;103574;1313;22760;-69
2021/12/24 10:33:13;;;;;;;21.70;7.80;;;;;;;2.91;92.21;98394.44;103731;1316;22585;-71
2021/12/24 10:35:44;;;;;;;22.70;7.50;;;;;;;2.92;92.21;98391.23;103864;1313;22593;-72
2021/12/24 10:38:18;;;;;;;20.90;8.00;;;;;;;2.94;92.27;98388.46;103820;1318;25184;-70
2021/12/24 10:41:11;;;;;;;25.90;8.60;;;;;;;2.95;92.37;98390.69;103693;1313;22572;-70
2021/12/24 10:43:42;;;;;;;22.90;8.00;;;;;;;2.96;92.42;98387.31;103488;1317;22577;-69
2021/12/24 10:46:16;;;;;;;27.10;8.40;;;;;;;2.97;92.33;98380.78;103688;1316;24213;-66
2021/12/24 10:49:03;;;;;;;25.90;8.30;;;;;;;2.99;92.34;98378.34;103579;1316;25553;-68
2021/12/24 10:51:59;;;;;;;23.50;9.20;;;;;;;3.00;92.29;98376.36;103746;1316;22579;-66
2021/12/24 10:54:30;;;;;;;23.70;8.70;;;;;;;3.03;92.32;98367.95;105740;1316;24469;-67
2021/12/24 10:57:17;;;;;;;24.60;8.20;;;;;;;3.05;92.20;98360.31;102894;1312;25702;-67
2021/12/24 10:59:49;;;;;;;27.50;9.00;;;;;;;3.06;92.26;98362.34;106552;1319;22432;-67
2021/12/24 11:02:23;;;;;;;28.50;9.80;;;;;;;3.08;92.31;98363.63;106490;1313;22622;-68
2021/12/24 11:04:54;;;;;;;26.50;9.70;;;;;;;3.10;92.27;98358.95;104752;1312;23397;-68
2021/12/24 11:07:39;;;;;;;25.30;9.20;;;;;;;3.13;92.27;98357.84;103601;1312;22577;-68
2021/12/24 11:10:20;;;;;;;31.70;11.10;;;;;;;3.15;92.21;98356.60;102725;1312;23878;-67
2021/12/24 11:12:54;;;;;;;28.10;10.10;;;;;;;3.18;92.33;98357.16;102720;1312;22640;-74
2021/12/24 11:15:29;;;;;;;29.20;11.10;;;;;;;3.22;92.20;98355.01;103970;1312;22575;-75
2021/12/24 11:18:04;;;;;;;36.80;14.20;;;;;;;3.23;92.28;98357.52;103824;1314;22614;-77
2021/12/24 11:20:37;;;;;;;33.90;13.20;;;;;;;3.24;92.33;98362.36;103626;1312;169587;-75
2021/12/24 11:23:11;;;;;;;40.70;14.90;;;;;;;3.26;92.30;98360.80;103954;1315;22647;-70
2021/12/24 11:26:00;;;;;;;44.50;16.00;;;;;;;3.30;92.44;98361.11;104082;1309;27680;-71
2021/12/24 11:28:33;;;;;;;39.50;15.40;;;;;;;3.32;92.43;98356.89;106578;1312;24103;-71
2021/12/24 11:31:12;;;;;;;34.90;13.80;;;;;;;3.36;92.43;98354.09;103838;1313;22712;-72
2021/12/24 11:34:04;;;;;;;32.20;14.20;;;;;;;3.41;92.54;98348.25;104018;1312;22685;-70
2021/12/24 11:36:37;;;;;;;26.70;11.40;;;;;;;3.44;92.50;98340.44;104333;1313;22618;-69
2021/12/24 11:39:08;;;;;;;33.90;12.70;;;;;;;3.48;92.50;98332.81;103767;1312;25610;-69
2021/12/24 11:41:46;;;;;;;31.60;13.30;;;;;;;3.50;92.60;98325.00;103710;1312;23078;-69
2021/12/24 11:44:42;;;;;;;29.80;11.00;;;;;;;3.56;92.62;98321.83;103655;1316;23181;-69
2021/12/24 11:47:14;;;;;;;30.80;11.00;;;;;;;3.59;92.70;98319.88;104143;1317;22605;-69
2021/12/24 11:49:45;;;;;;;28.90;11.90;;;;;;;3.62;92.70;98316.64;103652;1317;25261;-71
2021/12/24 11:52:16;;;;;;;30.60;12.70;;;;;;;3.64;92.71;98320.09;103597;1319;22619;-63
2021/12/24 11:54:49;;;;;;;31.80;13.60;;;;;;;3.65;92.69;98314.80;103123;1312;363359;-65
2021/12/24 11:57:22;;;;;;;31.30;14.60;;;;;;;3.68;92.79;98313.70;102980;1316;24442;-65
2021/12/24 11:59:54;;;;;;;38.40;16.40;;;;;;;3.71;92.91;98311.97;103389;1317;25752;-65
2021/12/24 12:02:45;;;;;;;31.40;14.40;;;;;;;3.74;92.90;98317.88;102957;1315;22599;-63
2021/12/24 12:05:19;;;;;;;32.90;14.00;;;;;;;3.77;93.02;98313.52;103347;1312;24375;-63
2021/12/24 12:07:51;;;;;;;40.10;15.40;;;;;;;3.79;93.03;98317.32;103029;1318;22685;-63
2021/12/24 12:10:51;;;;;;;39.80;16.50;;;;;;;3.82;92.96;98314.90;102908;1318;24280;-63
2021/12/24 12:13:44;;;;;;;41.80;16.90;;;;;;;3.84;93.09;98306.39;103012;1317;22644;-64
2021/12/24 12:16:18;;;;;;;36.60;15.10;;;;;;;3.86;93.13;98303.12;103238;1318;22649;-64
2021/12/24 12:19:02;;;;;;;37.30;15.70;;;;;;;3.88;93.21;98304.00;103102;1319;22644;-64
2021/12/24 12:21:40;;;;;;;46.80;17.40;;;;;;;3.92;93.17;98303.90;102972;1316;27545;-64
2021/12/24 12:27:28;;;;;;;40.80;16.20;;;;;;;3.98;93.49;98287.37;102806;1313;24314;-65
2021/12/24 12:30:26;;;;;;;38.20;14.70;;;;;;;4.03;93.79;98292.20;103610;1312;23681;-66
2021/12/24 12:33:08;;;;;;;34.40;13.40;;;;;;;4.09;94.00;98293.45;103647;1313;22593;-63
2021/12/24 12:35:42;;;;;;;33.60;12.90;;;;;;;4.15;94.09;98294.13;104572;1312;32558;-65
2021/12/24 12:38:32;;;;;;;23.90;8.90;;;;;;;4.24;94.74;98287.96;106544;1316;22479;-65
2021/12/24 12:41:25;;;;;;;16.20;6.00;;;;;;;4.40;95.51;98283.83;106502;1313;22379;-64
2021/12/24 12:43:56;;;;;;;12.10;3.90;;;;;;;4.65;96.76;98286.83;106511;1313;22431;-65
2021/12/24 12:46:32;;;;;;;7.30;2.10;;;;;;;4.92;97.58;98279.93;106549;1315;23605;-65
2021/12/24 12:49:05;;;;;;;12.30;4.40;;;;;;;5.16;97.41;98272.86;106575;1319;22625;-65
2021/12/24 12:51:53;;;;;;;6.70;1.90;;;;;;;5.34;97.03;98278.73;106527;1316;22452;-66
2021/12/24 12:54:38;;;;;;;6.60;1.60;;;;;;;5.53;96.94;98272.41;106560;1315;22448;-65
2021/12/24 12:57:21;;;;;;;5.50;1.30;;;;;;;5.70;96.65;98272.42;106557;1316;22524;-63
2021/12/24 13:00:22;;;;;;;5.90;1.30;;;;;;;5.87;96.31;98265.89;106537;1312;23083;-63
2021/12/24 13:03:19;;;;;;;3.80;0.90;;;;;;;6.01;95.87;98266.86;106558;1312;22495;-63
2021/12/24 13:06:06;;;;;;;6.30;1.80;;;;;;;6.11;95.57;98268.11;106534;1314;22389;-63
2021/12/24 13:08:40;;;;;;;7.10;1.50;;;;;;;6.21;95.38;98267.14;103851;1313;22577;-63
2021/12/24 13:11:14;;;;;;;7.00;1.30;;;;;;;6.30;95.13;98271.98;106558;1312;22402;-63
2021/12/24 13:13:52;;;;;;;7.60;1.70;;;;;;;6.38;94.96;98275.94;103705;1312;24278;-63
2021/12/24 13:16:28;;;;;;;10.50;1.80;;;;;;;6.45;94.66;98274.56;106615;1315;22568;-63
2021/12/24 13:19:21;;;;;;;11.00;3.00;;;;;;;6.52;94.59;98271.20;106534;1315;22403;-63